sensor_id;sensor_type;location;lat;lon;timestamp;temperature;humidity
13245;DHT22;6689;53.400;12.486;2023-09-18T00:01:30;20.60;99.90
13245;DHT22;6689;53.400;12.486;2023-09-18T00:03:58;20.60;99.90
13245;DHT22;6689;53.400;12.486;2023-09-18T00:06:25;20.60;99.90
13245;DHT22;6689;53.400;12.486;2023-09-18T00:08:54;20.60;99.90
13245;DHT22;6689;53.400;12.486;2023-09-18T00:11:22;20.50;99.90
13245;DHT22;6689;53.400;12.486;2023-09-18T00:13:49;20.60;99.90
13245;DHT22;6689;53.400;12.486;2023-09-18T00:16:17;20.50;99.90
13245;DHT22;6689;53.400;12.486;2023-09-18T00:18:44;20.50;99.90
13245;DHT22;6689;53.400;12.486;2023-09-18T00:21:12;20.50;99.90
13245;DHT22;6689;53.400;12.486;2023-09-18T00:23:40;20.50;99.90
13245;DHT22;6689;53.400;12.486;2023-09-18T00:26:09;20.50;99.90
13245;DHT22;6689;53.400;12.486;2023-09-18T00:28:36;20.40;99.90
13245;DHT22;6689;53.400;12.486;2023-09-18T00:31:04;20.50;99.90
13245;DHT22;6689;53.400;12.486;2023-09-18T00:33:32;20.50;99.90
13245;DHT22;6689;53.400;12.486;2023-09-18T00:35:59;20.50;99.90
13245;DHT22;6689;53.400;12.486;2023-09-18T00:38:26;20.40;99.90
13245;DHT22;6689;53.400;12.486;2023-09-18T00:40:54;20.40;99.90
13245;DHT22;6689;53.400;12.486;2023-09-18T00:43:23;20.40;99.90
13245;DHT22;6689;53.400;12.486;2023-09-18T00:45:50;20.40;99.90
13245;DHT22;6689;53.400;12.486;2023-09-18T00:48:18;20.30;99.90
13245;DHT22;6689;53.400;12.486;2023-09-18T00:50:45;20.30;99.90
13245;DHT22;6689;53.400;12.486;2023-09-18T00:53:15;20.30;99.90
13245;DHT22;6689;53.400;12.486;2023-09-18T00:55:44;20.20;99.90
13245;DHT22;6689;53.400;12.486;2023-09-18T00:58:12;20.20;99.90
13245;DHT22;6689;53.400;12.486;2023-09-18T01:00:42;20.20;99.90
13245;DHT22;6689;53.400;12.486;2023-09-18T01:03:10;20.20;99.90
13245;DHT22;6689;53.400;12.486;2023-09-18T01:05:37;20.10;99.90
13245;DHT22;6689;53.400;12.486;2023-09-18T01:08:05;20.10;99.90
13245;DHT22;6689;53.400;12.486;2023-09-18T01:10:36;20.10;99.90
13245;DHT22;6689;53.400;12.486;2023-09-18T01:13:05;20.00;99.90
13245;DHT22;6689;53.400;12.486;2023-09-18T01:15:46;20.00;99.90
13245;DHT22;6689;53.400;12.486;2023-09-18T01:18:15;20.00;99.90
13245;DHT22;6689;53.400;12.486;2023-09-18T01:20:44;20.00;99.90
13245;DHT22;6689;53.400;12.486;2023-09-18T01:23:13;19.90;99.90
13245;DHT22;6689;53.400;12.486;2023-09-18T01:25:40;19.90;99.90
13245;DHT22;6689;53.400;12.486;2023-09-18T01:28:07;19.90;99.90
13245;DHT22;6689;53.400;12.486;2023-09-18T01:30:35;19.90;99.90
13245;DHT22;6689;53.400;12.486;2023-09-18T01:33:04;19.80;99.90
13245;DHT22;6689;53.400;12.486;2023-09-18T01:35:31;19.80;99.90
13245;DHT22;6689;53.400;12.486;2023-09-18T01:38:19;19.80;99.90
13245;DHT22;6689;53.400;12.486;2023-09-18T01:40:47;19.80;99.90
13245;DHT22;6689;53.400;12.486;2023-09-18T01:43:15;19.80;99.90
13245;DHT22;6689;53.400;12.486;2023-09-18T01:45:42;19.80;99.90
13245;DHT22;6689;53.400;12.486;2023-09-18T01:48:10;19.80;99.90
13245;DHT22;6689;53.400;12.486;2023-09-18T01:50:38;19.80;99.90
13245;DHT22;6689;53.400;12.486;2023-09-18T01:53:06;19.70;99.90
13245;DHT22;6689;53.400;12.486;2023-09-18T01:55:35;19.70;99.90
13245;DHT22;6689;53.400;12.486;2023-09-18T01:58:02;19.70;99.90
13245;DHT22;6689;53.400;12.486;2023-09-18T02:00:30;19.70;99.90
13245;DHT22;6689;53.400;12.486;2023-09-18T02:02:57;19.60;99.90
13245;DHT22;6689;53.400;12.486;2023-09-18T02:05:24;19.60;99.90
13245;DHT22;6689;53.400;12.486;2023-09-18T02:07:52;19.60;99.90
13245;DHT22;6689;53.400;12.486;2023-09-18T02:10:19;19.60;99.90
13245;DHT22;6689;53.400;12.486;2023-09-18T02:12:48;19.50;99.90
13245;DHT22;6689;53.400;12.486;2023-09-18T02:15:16;19.50;99.90
13245;DHT22;6689;53.400;12.486;2023-09-18T02:17:45;19.50;99.90
13245;DHT22;6689;53.400;12.486;2023-09-18T02:20:13;19.40;99.90
13245;DHT22;6689;53.400;12.486;2023-09-18T02:22:40;19.40;99.90
13245;DHT22;6689;53.400;12.486;2023-09-18T02:25:11;19.40;99.90
13245;DHT22;6689;53.400;12.486;2023-09-18T02:27:38;19.40;99.90
13245;DHT22;6689;53.400;12.486;2023-09-18T02:30:08;19.30;99.90
13245;DHT22;6689;53.400;12.486;2023-09-18T02:32:36;19.30;99.90
13245;DHT22;6689;53.400;12.486;2023-09-18T02:35:04;19.20;99.90
13245;DHT22;6689;53.400;12.486;2023-09-18T02:37:33;19.20;99.90
13245;DHT22;6689;53.400;12.486;2023-09-18T02:40:00;19.20;99.90
13245;DHT22;6689;53.400;12.486;2023-09-18T02:42:28;19.20;99.90
13245;DHT22;6689;53.400;12.486;2023-09-18T02:44:55;19.10;99.90
13245;DHT22;6689;53.400;12.486;2023-09-18T02:47:25;19.10;99.90
13245;DHT22;6689;53.400;12.486;2023-09-18T02:49:52;19.10;99.90
13245;DHT22;6689;53.400;12.486;2023-09-18T02:52:19;19.10;99.90
13245;DHT22;6689;53.400;12.486;2023-09-18T02:54:46;19.10;99.90
13245;DHT22;6689;53.400;12.486;2023-09-18T02:57:14;19.10;99.90
13245;DHT22;6689;53.400;12.486;2023-09-18T02:59:41;19.10;99.90
13245;DHT22;6689;53.400;12.486;2023-09-18T03:02:08;19.00;99.90
13245;DHT22;6689;53.400;12.486;2023-09-18T03:04:38;19.10;99.90
13245;DHT22;6689;53.400;12.486;2023-09-18T03:07:05;19.10;99.90
13245;DHT22;6689;53.400;12.486;2023-09-18T03:09:32;19.00;99.90
13245;DHT22;6689;53.400;12.486;2023-09-18T03:12:01;19.10;99.90
13245;DHT22;6689;53.400;12.486;2023-09-18T03:14:28;19.10;99.90
13245;DHT22;6689;53.400;12.486;2023-09-18T03:16:56;19.00;99.90
13245;DHT22;6689;53.400;12.486;2023-09-18T03:19:23;19.00;99.90
13245;DHT22;6689;53.400;12.486;2023-09-18T03:21:54;19.10;99.90
13245;DHT22;6689;53.400;12.486;2023-09-18T03:24:21;19.10;99.90
13245;DHT22;6689;53.400;12.486;2023-09-18T03:26:48;19.10;99.90
13245;DHT22;6689;53.400;12.486;2023-09-18T03:29:16;19.10;99.90
13245;DHT22;6689;53.400;12.486;2023-09-18T03:31:43;19.10;99.90
13245;DHT22;6689;53.400;12.486;2023-09-18T03:34:11;19.10;99.90
13245;DHT22;6689;53.400;12.486;2023-09-18T03:36:39;19.10;99.90
13245;DHT22;6689;53.400;12.486;2023-09-18T03:39:07;19.10;99.90
13245;DHT22;6689;53.400;12.486;2023-09-18T03:41:35;19.00;99.90
13245;DHT22;6689;53.400;12.486;2023-09-18T03:44:03;19.00;99.90
13245;DHT22;6689;53.400;12.486;2023-09-18T03:46:30;19.00;99.90
13245;DHT22;6689;53.400;12.486;2023-09-18T03:48:58;19.00;99.90
13245;DHT22;6689;53.400;12.486;2023-09-18T03:51:25;19.00;99.90
13245;DHT22;6689;53.400;12.486;2023-09-18T03:53:52;19.00;99.90
13245;DHT22;6689;53.400;12.486;2023-09-18T03:56:22;19.00;99.90
13245;DHT22;6689;53.400;12.486;2023-09-18T03:58:49;19.00;99.90
13245;DHT22;6689;53.400;12.486;2023-09-18T04:01:17;18.90;99.90
13245;DHT22;6689;53.400;12.486;2023-09-18T04:03:44;18.90;99.90
13245;DHT22;6689;53.400;12.486;2023-09-18T04:06:11;18.90;99.90
13245;DHT22;6689;53.400;12.486;2023-09-18T04:08:44;18.90;99.90
13245;DHT22;6689;53.400;12.486;2023-09-18T04:11:11;18.90;99.90
13245;DHT22;6689;53.400;12.486;2023-09-18T04:13:41;18.90;99.90
13245;DHT22;6689;53.400;12.486;2023-09-18T04:16:11;18.80;99.90
13245;DHT22;6689;53.400;12.486;2023-09-18T04:18:44;18.80;99.90
13245;DHT22;6689;53.400;12.486;2023-09-18T04:21:11;18.80;99.90
13245;DHT22;6689;53.400;12.486;2023-09-18T04:23:38;18.80;99.90
13245;DHT22;6689;53.400;12.486;2023-09-18T04:26:06;18.80;99.90
13245;DHT22;6689;53.400;12.486;2023-09-18T04:28:33;18.80;99.90
13245;DHT22;6689;53.400;12.486;2023-09-18T04:31:02;18.80;99.90
13245;DHT22;6689;53.400;12.486;2023-09-18T04:33:30;18.80;99.90
13245;DHT22;6689;53.400;12.486;2023-09-18T04:35:58;18.70;99.90
13245;DHT22;6689;53.400;12.486;2023-09-18T04:38:25;18.70;99.90
13245;DHT22;6689;53.400;12.486;2023-09-18T04:40:58;18.70;99.90
13245;DHT22;6689;53.400;12.486;2023-09-18T04:43:25;18.70;99.90
13245;DHT22;6689;53.400;12.486;2023-09-18T04:45:55;18.80;99.90
13245;DHT22;6689;53.400;12.486;2023-09-18T04:48:24;18.80;99.90
13245;DHT22;6689;53.400;12.486;2023-09-18T04:50:51;18.80;99.90
13245;DHT22;6689;53.400;12.486;2023-09-18T04:53:19;18.70;99.90
13245;DHT22;6689;53.400;12.486;2023-09-18T04:55:46;18.80;99.90
13245;DHT22;6689;53.400;12.486;2023-09-18T04:58:15;18.80;99.90
13245;DHT22;6689;53.400;12.486;2023-09-18T05:00:42;18.80;99.90
13245;DHT22;6689;53.400;12.486;2023-09-18T05:03:10;18.80;99.90
13245;DHT22;6689;53.400;12.486;2023-09-18T05:05:39;18.80;99.90
13245;DHT22;6689;53.400;12.486;2023-09-18T05:08:07;18.80;99.90
13245;DHT22;6689;53.400;12.486;2023-09-18T05:10:35;18.70;99.90
13245;DHT22;6689;53.400;12.486;2023-09-18T05:13:02;18.80;99.90
13245;DHT22;6689;53.400;12.486;2023-09-18T05:15:30;18.80;99.90
13245;DHT22;6689;53.400;12.486;2023-09-18T05:17:58;18.80;99.90
13245;DHT22;6689;53.400;12.486;2023-09-18T05:20:27;18.80;99.90
13245;DHT22;6689;53.400;12.486;2023-09-18T05:22:57;18.90;99.90
13245;DHT22;6689;53.400;12.486;2023-09-18T05:25:25;18.90;99.90
13245;DHT22;6689;53.400;12.486;2023-09-18T05:27:54;18.90;99.90
13245;DHT22;6689;53.400;12.486;2023-09-18T05:30:24;19.00;99.90
13245;DHT22;6689;53.400;12.486;2023-09-18T05:32:53;18.90;99.90
13245;DHT22;6689;53.400;12.486;2023-09-18T05:35:21;19.00;99.90
13245;DHT22;6689;53.400;12.486;2023-09-18T05:37:49;19.00;99.90
13245;DHT22;6689;53.400;12.486;2023-09-18T05:40:18;19.00;99.90
13245;DHT22;6689;53.400;12.486;2023-09-18T05:42:46;19.10;99.90
13245;DHT22;6689;53.400;12.486;2023-09-18T05:45:14;19.20;99.90
13245;DHT22;6689;53.400;12.486;2023-09-18T05:47:42;19.20;99.90
13245;DHT22;6689;53.400;12.486;2023-09-18T05:50:11;19.20;99.90
13245;DHT22;6689;53.400;12.486;2023-09-18T05:52:42;19.30;99.90
13245;DHT22;6689;53.400;12.486;2023-09-18T05:55:09;19.30;99.90
13245;DHT22;6689;53.400;12.486;2023-09-18T05:57:38;19.40;99.90
13245;DHT22;6689;53.400;12.486;2023-09-18T06:00:06;19.50;99.90
13245;DHT22;6689;53.400;12.486;2023-09-18T06:02:34;19.50;99.90
13245;DHT22;6689;53.400;12.486;2023-09-18T06:05:03;19.60;99.90
13245;DHT22;6689;53.400;12.486;2023-09-18T06:07:32;19.50;99.90
13245;DHT22;6689;53.400;12.486;2023-09-18T06:09:59;19.50;99.90
13245;DHT22;6689;53.400;12.486;2023-09-18T06:12:27;19.60;99.90
13245;DHT22;6689;53.400;12.486;2023-09-18T06:14:55;19.70;99.90
13245;DHT22;6689;53.400;12.486;2023-09-18T06:17:24;19.70;99.90
13245;DHT22;6689;53.400;12.486;2023-09-18T06:19:51;19.70;99.90
13245;DHT22;6689;53.400;12.486;2023-09-18T06:22:18;19.80;99.90
13245;DHT22;6689;53.400;12.486;2023-09-18T06:24:46;19.90;99.90
13245;DHT22;6689;53.400;12.486;2023-09-18T06:27:13;19.90;99.90
13245;DHT22;6689;53.400;12.486;2023-09-18T06:29:41;20.00;99.90
13245;DHT22;6689;53.400;12.486;2023-09-18T06:32:10;20.00;99.90
13245;DHT22;6689;53.400;12.486;2023-09-18T06:34:37;20.00;99.90
13245;DHT22;6689;53.400;12.486;2023-09-18T06:37:08;20.00;99.90
13245;DHT22;6689;53.400;12.486;2023-09-18T06:39:38;20.10;99.90
13245;DHT22;6689;53.400;12.486;2023-09-18T06:42:06;20.20;99.90
13245;DHT22;6689;53.400;12.486;2023-09-18T06:44:33;20.30;99.90
13245;DHT22;6689;53.400;12.486;2023-09-18T06:47:03;20.50;99.90
13245;DHT22;6689;53.400;12.486;2023-09-18T06:49:32;20.90;99.90
13245;DHT22;6689;53.400;12.486;2023-09-18T06:52:00;21.30;99.90
13245;DHT22;6689;53.400;12.486;2023-09-18T06:54:27;21.80;99.90
13245;DHT22;6689;53.400;12.486;2023-09-18T06:56:55;22.20;99.90
13245;DHT22;6689;53.400;12.486;2023-09-18T06:59:22;22.60;99.90
13245;DHT22;6689;53.400;12.486;2023-09-18T07:01:49;22.80;99.90
13245;DHT22;6689;53.400;12.486;2023-09-18T07:04:16;23.30;99.90
13245;DHT22;6689;53.400;12.486;2023-09-18T07:06:46;23.80;99.90
13245;DHT22;6689;53.400;12.486;2023-09-18T07:09:13;24.50;99.90
13245;DHT22;6689;53.400;12.486;2023-09-18T07:11:40;25.40;99.90
13245;DHT22;6689;53.400;12.486;2023-09-18T07:14:09;26.10;91.40
13245;DHT22;6689;53.400;12.486;2023-09-18T07:16:37;27.20;44.00
13245;DHT22;6689;53.400;12.486;2023-09-18T07:19:04;28.00;15.00
13245;DHT22;6689;53.400;12.486;2023-09-18T07:21:32;29.20;1.00
13245;DHT22;6689;53.400;12.486;2023-09-18T07:24:02;30.50;1.00
13245;DHT22;6689;53.400;12.486;2023-09-18T07:26:30;31.70;1.00
13245;DHT22;6689;53.400;12.486;2023-09-18T07:28:57;32.30;1.00
13245;DHT22;6689;53.400;12.486;2023-09-18T07:31:24;32.70;1.00
13245;DHT22;6689;53.400;12.486;2023-09-18T07:33:52;33.50;1.00
13245;DHT22;6689;53.400;12.486;2023-09-18T07:36:20;34.20;1.00
13245;DHT22;6689;53.400;12.486;2023-09-18T07:38:47;34.90;1.00
13245;DHT22;6689;53.400;12.486;2023-09-18T07:41:16;35.10;1.00
13245;DHT22;6689;53.400;12.486;2023-09-18T07:43:44;35.10;1.00
13245;DHT22;6689;53.400;12.486;2023-09-18T07:46:12;35.10;1.00
13245;DHT22;6689;53.400;12.486;2023-09-18T07:48:39;34.80;1.00
13245;DHT22;6689;53.400;12.486;2023-09-18T07:51:10;34.50;1.00
13245;DHT22;6689;53.400;12.486;2023-09-18T07:53:37;34.50;1.00
13245;DHT22;6689;53.400;12.486;2023-09-18T07:56:04;34.80;1.00
13245;DHT22;6689;53.400;12.486;2023-09-18T07:58:34;34.70;1.00
13245;DHT22;6689;53.400;12.486;2023-09-18T08:01:04;34.40;1.00
13245;DHT22;6689;53.400;12.486;2023-09-18T08:03:32;34.40;1.00
13245;DHT22;6689;53.400;12.486;2023-09-18T08:05:59;33.80;1.00
13245;DHT22;6689;53.400;12.486;2023-09-18T08:08:26;34.10;1.00
13245;DHT22;6689;53.400;12.486;2023-09-18T08:10:56;34.30;1.00
13245;DHT22;6689;53.400;12.486;2023-09-18T08:13:24;33.60;1.00
13245;DHT22;6689;53.400;12.486;2023-09-18T08:15:53;33.30;1.00
13245;DHT22;6689;53.400;12.486;2023-09-18T08:18:20;33.20;1.00
13245;DHT22;6689;53.400;12.486;2023-09-18T08:20:47;33.40;1.00
13245;DHT22;6689;53.400;12.486;2023-09-18T08:23:14;33.80;1.00
13245;DHT22;6689;53.400;12.486;2023-09-18T08:25:42;33.80;1.00
13245;DHT22;6689;53.400;12.486;2023-09-18T08:28:09;33.70;1.00
13245;DHT22;6689;53.400;12.486;2023-09-18T08:30:37;33.80;1.00
13245;DHT22;6689;53.400;12.486;2023-09-18T08:33:07;33.80;1.00
13245;DHT22;6689;53.400;12.486;2023-09-18T08:35:35;33.00;1.00
13245;DHT22;6689;53.400;12.486;2023-09-18T08:38:02;32.20;1.00
13245;DHT22;6689;53.400;12.486;2023-09-18T08:40:30;33.10;1.00
13245;DHT22;6689;53.400;12.486;2023-09-18T08:42:58;34.00;1.00
13245;DHT22;6689;53.400;12.486;2023-09-18T08:45:31;34.20;1.00
13245;DHT22;6689;53.400;12.486;2023-09-18T08:48:02;34.50;1.00
13245;DHT22;6689;53.400;12.486;2023-09-18T08:50:31;33.90;1.00
13245;DHT22;6689;53.400;12.486;2023-09-18T08:53:00;32.30;1.00
13245;DHT22;6689;53.400;12.486;2023-09-18T08:55:27;30.40;1.00
13245;DHT22;6689;53.400;12.486;2023-09-18T08:57:57;29.30;1.00
13245;DHT22;6689;53.400;12.486;2023-09-18T09:00:25;28.30;1.00
13245;DHT22;6689;53.400;12.486;2023-09-18T09:02:52;27.90;1.00
13245;DHT22;6689;53.400;12.486;2023-09-18T09:05:20;27.50;1.00
13245;DHT22;6689;53.400;12.486;2023-09-18T09:07:49;27.30;1.00
13245;DHT22;6689;53.400;12.486;2023-09-18T09:10:16;27.10;1.00
13245;DHT22;6689;53.400;12.486;2023-09-18T09:12:52;27.00;1.00
13245;DHT22;6689;53.400;12.486;2023-09-18T09:15:25;26.90;1.00
13245;DHT22;6689;53.400;12.486;2023-09-18T09:18:02;26.80;1.00
13245;DHT22;6689;53.400;12.486;2023-09-18T09:20:30;26.70;1.00
13245;DHT22;6689;53.400;12.486;2023-09-18T09:23:02;26.60;1.00
13245;DHT22;6689;53.400;12.486;2023-09-18T09:25:31;26.60;1.00
13245;DHT22;6689;53.400;12.486;2023-09-18T09:28:00;26.50;1.00
13245;DHT22;6689;53.400;12.486;2023-09-18T09:30:29;26.50;1.00
13245;DHT22;6689;53.400;12.486;2023-09-18T09:32:58;26.30;2.80
13245;DHT22;6689;53.400;12.486;2023-09-18T09:35:29;26.30;1.50
13245;DHT22;6689;53.400;12.486;2023-09-18T09:38:02;26.30;5.10
13245;DHT22;6689;53.400;12.486;2023-09-18T09:40:33;26.20;5.90
13245;DHT22;6689;53.400;12.486;2023-09-18T09:43:02;26.20;10.30
13245;DHT22;6689;53.400;12.486;2023-09-18T09:45:31;26.10;11.20
13245;DHT22;6689;53.400;12.486;2023-09-18T09:48:02;26.10;9.70
13245;DHT22;6689;53.400;12.486;2023-09-18T09:50:32;26.10;14.10
13245;DHT22;6689;53.400;12.486;2023-09-18T09:52:59;26.10;10.00
13245;DHT22;6689;53.400;12.486;2023-09-18T09:55:30;26.10;14.90
13245;DHT22;6689;53.400;12.486;2023-09-18T09:57:59;26.10;10.20
13245;DHT22;6689;53.400;12.486;2023-09-18T10:00:30;26.10;16.20
13245;DHT22;6689;53.400;12.486;2023-09-18T10:03:04;26.30;19.90
13245;DHT22;6689;53.400;12.486;2023-09-18T10:05:32;26.40;16.10
13245;DHT22;6689;53.400;12.486;2023-09-18T10:08:04;26.50;13.90
13245;DHT22;6689;53.400;12.486;2023-09-18T10:10:38;26.50;6.30
13245;DHT22;6689;53.400;12.486;2023-09-18T10:13:10;26.60;6.80
13245;DHT22;6689;53.400;12.486;2023-09-18T10:15:42;26.60;5.40
13245;DHT22;6689;53.400;12.486;2023-09-18T10:18:17;26.70;9.60
13245;DHT22;6689;53.400;12.486;2023-09-18T10:20:46;26.70;2.90
13245;DHT22;6689;53.400;12.486;2023-09-18T10:23:37;26.80;3.60
13245;DHT22;6689;53.400;12.486;2023-09-18T10:26:09;26.90;5.60
13245;DHT22;6689;53.400;12.486;2023-09-18T10:28:37;27.00;11.80
13245;DHT22;6689;53.400;12.486;2023-09-18T10:31:05;27.10;4.00
13245;DHT22;6689;53.400;12.486;2023-09-18T10:33:34;27.10;6.20
13245;DHT22;6689;53.400;12.486;2023-09-18T10:36:03;27.10;5.20
13245;DHT22;6689;53.400;12.486;2023-09-18T10:38:31;27.00;6.30
13245;DHT22;6689;53.400;12.486;2023-09-18T10:40:59;26.90;6.80
13245;DHT22;6689;53.400;12.486;2023-09-18T10:43:28;26.80;5.50
13245;DHT22;6689;53.400;12.486;2023-09-18T10:45:56;26.70;6.60
13245;DHT22;6689;53.400;12.486;2023-09-18T10:48:24;26.60;10.50
13245;DHT22;6689;53.400;12.486;2023-09-18T10:50:52;26.50;10.60
13245;DHT22;6689;53.400;12.486;2023-09-18T10:53:19;26.40;12.10
13245;DHT22;6689;53.400;12.486;2023-09-18T10:55:49;26.40;14.80
13245;DHT22;6689;53.400;12.486;2023-09-18T10:58:23;26.20;12.90
13245;DHT22;6689;53.400;12.486;2023-09-18T11:00:54;26.20;12.60
13245;DHT22;6689;53.400;12.486;2023-09-18T11:03:23;26.20;16.80
13245;DHT22;6689;53.400;12.486;2023-09-18T11:06:03;26.00;11.40
13245;DHT22;6689;53.400;12.486;2023-09-18T11:08:33;26.00;14.80
13245;DHT22;6689;53.400;12.486;2023-09-18T11:11:03;26.00;13.90
13245;DHT22;6689;53.400;12.486;2023-09-18T11:13:39;25.90;17.30
13245;DHT22;6689;53.400;12.486;2023-09-18T11:16:35;25.80;13.40
13245;DHT22;6689;53.400;12.486;2023-09-18T11:19:12;25.80;22.30
13245;DHT22;6689;53.400;12.486;2023-09-18T11:21:40;25.70;22.10
13245;DHT22;6689;53.400;12.486;2023-09-18T11:24:16;25.60;20.00
13245;DHT22;6689;53.400;12.486;2023-09-18T11:26:45;25.60;36.60
13245;DHT22;6689;53.400;12.486;2023-09-18T11:29:15;25.60;26.30
13245;DHT22;6689;53.400;12.486;2023-09-18T11:31:46;25.50;28.00
13245;DHT22;6689;53.400;12.486;2023-09-18T11:34:19;25.60;25.50
13245;DHT22;6689;53.400;12.486;2023-09-18T11:36:47;25.60;24.50
13245;DHT22;6689;53.400;12.486;2023-09-18T11:39:32;25.70;26.80
13245;DHT22;6689;53.400;12.486;2023-09-18T11:42:12;25.80;22.70
13245;DHT22;6689;53.400;12.486;2023-09-18T11:44:42;25.80;20.50
13245;DHT22;6689;53.400;12.486;2023-09-18T11:47:14;26.00;23.20
13245;DHT22;6689;53.400;12.486;2023-09-18T11:49:51;26.10;23.00
13245;DHT22;6689;53.400;12.486;2023-09-18T11:52:22;26.30;21.00
13245;DHT22;6689;53.400;12.486;2023-09-18T11:54:50;26.30;20.70
13245;DHT22;6689;53.400;12.486;2023-09-18T11:57:18;26.30;19.00
13245;DHT22;6689;53.400;12.486;2023-09-18T11:59:46;26.30;17.10
13245;DHT22;6689;53.400;12.486;2023-09-18T12:02:25;26.30;13.30
13245;DHT22;6689;53.400;12.486;2023-09-18T12:04:53;26.40;16.20
13245;DHT22;6689;53.400;12.486;2023-09-18T12:07:21;26.50;11.80
13245;DHT22;6689;53.400;12.486;2023-09-18T12:09:49;26.50;8.20
13245;DHT22;6689;53.400;12.486;2023-09-18T12:12:16;26.50;10.60
13245;DHT22;6689;53.400;12.486;2023-09-18T12:14:44;26.40;15.10
13245;DHT22;6689;53.400;12.486;2023-09-18T12:17:15;26.50;15.00
13245;DHT22;6689;53.400;12.486;2023-09-18T12:19:51;26.40;13.70
13245;DHT22;6689;53.400;12.486;2023-09-18T12:22:26;26.30;16.10
13245;DHT22;6689;53.400;12.486;2023-09-18T12:25:09;26.30;15.50
13245;DHT22;6689;53.400;12.486;2023-09-18T12:27:37;26.20;14.20
13245;DHT22;6689;53.400;12.486;2023-09-18T12:30:06;26.20;16.30
13245;DHT22;6689;53.400;12.486;2023-09-18T12:32:37;26.10;19.10
13245;DHT22;6689;53.400;12.486;2023-09-18T12:35:06;26.00;16.90
13245;DHT22;6689;53.400;12.486;2023-09-18T12:37:34;26.00;32.90
13245;DHT22;6689;53.400;12.486;2023-09-18T12:40:03;25.90;17.60
13245;DHT22;6689;53.400;12.486;2023-09-18T12:42:36;25.90;20.70
13245;DHT22;6689;53.400;12.486;2023-09-18T12:45:07;25.80;25.10
13245;DHT22;6689;53.400;12.486;2023-09-18T12:47:37;25.90;24.80
13245;DHT22;6689;53.400;12.486;2023-09-18T12:50:05;25.80;19.80
13245;DHT22;6689;53.400;12.486;2023-09-18T12:52:34;25.90;20.00
13245;DHT22;6689;53.400;12.486;2023-09-18T12:55:01;25.90;19.50
13245;DHT22;6689;53.400;12.486;2023-09-18T12:57:32;26.00;19.50
13245;DHT22;6689;53.400;12.486;2023-09-18T12:59:59;26.00;19.20
13245;DHT22;6689;53.400;12.486;2023-09-18T13:02:38;26.00;21.70
13245;DHT22;6689;53.400;12.486;2023-09-18T13:05:06;25.90;21.90
13245;DHT22;6689;53.400;12.486;2023-09-18T13:07:43;25.80;24.70
13245;DHT22;6689;53.400;12.486;2023-09-18T13:10:11;25.90;24.80
13245;DHT22;6689;53.400;12.486;2023-09-18T13:12:42;25.80;23.00
13245;DHT22;6689;53.400;12.486;2023-09-18T13:15:10;25.80;24.20
13245;DHT22;6689;53.400;12.486;2023-09-18T13:17:43;25.80;26.00
13245;DHT22;6689;53.400;12.486;2023-09-18T13:20:15;26.00;29.10
13245;DHT22;6689;53.400;12.486;2023-09-18T13:22:48;26.00;29.90
13245;DHT22;6689;53.400;12.486;2023-09-18T13:25:20;26.10;29.90
13245;DHT22;6689;53.400;12.486;2023-09-18T13:27:48;26.30;32.90
13245;DHT22;6689;53.400;12.486;2023-09-18T13:30:15;26.30;27.60
13245;DHT22;6689;53.400;12.486;2023-09-18T13:32:45;26.40;47.40
13245;DHT22;6689;53.400;12.486;2023-09-18T13:35:14;26.50;25.00
13245;DHT22;6689;53.400;12.486;2023-09-18T13:37:41;26.50;41.70
13245;DHT22;6689;53.400;12.486;2023-09-18T13:40:10;26.50;24.00
13245;DHT22;6689;53.400;12.486;2023-09-18T13:42:38;26.50;21.20
13245;DHT22;6689;53.400;12.486;2023-09-18T13:45:09;26.50;29.10
13245;DHT22;6689;53.400;12.486;2023-09-18T13:47:36;26.50;23.80
13245;DHT22;6689;53.400;12.486;2023-09-18T13:50:06;26.40;30.30
13245;DHT22;6689;53.400;12.486;2023-09-18T13:52:35;26.30;24.10
13245;DHT22;6689;53.400;12.486;2023-09-18T13:55:03;26.30;19.90
13245;DHT22;6689;53.400;12.486;2023-09-18T13:57:31;26.30;20.40
13245;DHT22;6689;53.400;12.486;2023-09-18T14:00:00;26.40;21.10
13245;DHT22;6689;53.400;12.486;2023-09-18T14:02:30;26.40;16.30
13245;DHT22;6689;53.400;12.486;2023-09-18T14:04:58;26.40;20.90
13245;DHT22;6689;53.400;12.486;2023-09-18T14:07:27;26.50;23.00
13245;DHT22;6689;53.400;12.486;2023-09-18T14:09:55;26.30;10.10
13245;DHT22;6689;53.400;12.486;2023-09-18T14:12:23;26.30;16.50
13245;DHT22;6689;53.400;12.486;2023-09-18T14:14:50;26.30;16.20
13245;DHT22;6689;53.400;12.486;2023-09-18T14:17:18;26.30;20.80
13245;DHT22;6689;53.400;12.486;2023-09-18T14:19:47;26.30;20.10
13245;DHT22;6689;53.400;12.486;2023-09-18T14:22:15;26.20;22.30
13245;DHT22;6689;53.400;12.486;2023-09-18T14:24:44;26.30;22.30
13245;DHT22;6689;53.400;12.486;2023-09-18T14:27:14;26.30;21.50
13245;DHT22;6689;53.400;12.486;2023-09-18T14:29:42;26.20;18.40
13245;DHT22;6689;53.400;12.486;2023-09-18T14:32:09;26.20;23.30
13245;DHT22;6689;53.400;12.486;2023-09-18T14:34:37;26.20;24.80
13245;DHT22;6689;53.400;12.486;2023-09-18T14:37:04;26.10;26.70
13245;DHT22;6689;53.400;12.486;2023-09-18T14:39:32;26.00;19.70
13245;DHT22;6689;53.400;12.486;2023-09-18T14:42:00;26.10;22.30
13245;DHT22;6689;53.400;12.486;2023-09-18T14:44:28;26.00;19.70
13245;DHT22;6689;53.400;12.486;2023-09-18T14:46:56;25.90;16.40
13245;DHT22;6689;53.400;12.486;2023-09-18T14:49:23;25.80;20.60
13245;DHT22;6689;53.400;12.486;2023-09-18T14:51:50;25.70;21.10
13245;DHT22;6689;53.400;12.486;2023-09-18T14:54:19;25.70;20.50
13245;DHT22;6689;53.400;12.486;2023-09-18T14:56:47;25.60;20.80
13245;DHT22;6689;53.400;12.486;2023-09-18T14:59:17;25.70;25.50
13245;DHT22;6689;53.400;12.486;2023-09-18T15:01:44;25.70;22.60
13245;DHT22;6689;53.400;12.486;2023-09-18T15:04:13;25.70;29.60
13245;DHT22;6689;53.400;12.486;2023-09-18T15:06:40;25.60;27.20
13245;DHT22;6689;53.400;12.486;2023-09-18T15:09:08;25.60;36.30
13245;DHT22;6689;53.400;12.486;2023-09-18T15:11:35;25.60;32.40
13245;DHT22;6689;53.400;12.486;2023-09-18T15:14:03;25.50;28.30
13245;DHT22;6689;53.400;12.486;2023-09-18T15:16:32;25.50;27.10
13245;DHT22;6689;53.400;12.486;2023-09-18T15:19:18;25.50;26.70
13245;DHT22;6689;53.400;12.486;2023-09-18T15:21:47;25.50;34.10
13245;DHT22;6689;53.400;12.486;2023-09-18T15:24:15;25.50;33.10
13245;DHT22;6689;53.400;12.486;2023-09-18T15:26:43;25.40;32.10
13245;DHT22;6689;53.400;12.486;2023-09-18T15:29:11;25.40;32.80
13245;DHT22;6689;53.400;12.486;2023-09-18T15:31:40;25.30;35.80
13245;DHT22;6689;53.400;12.486;2023-09-18T15:34:07;25.30;37.80
13245;DHT22;6689;53.400;12.486;2023-09-18T15:36:34;25.30;37.00
13245;DHT22;6689;53.400;12.486;2023-09-18T15:39:01;25.30;36.80
13245;DHT22;6689;53.400;12.486;2023-09-18T15:41:29;25.30;43.30
13245;DHT22;6689;53.400;12.486;2023-09-18T15:43:56;25.20;46.30
13245;DHT22;6689;53.400;12.486;2023-09-18T15:46:24;25.20;51.50